Time;durP1;ratioP1;P1;durP2;ratioP2;P2;SDS_P1;SDS_P2;PMS_P1;PMS_P2;Temp;Humidity;BMP_temperature;BMP_pressure;BME280_temperature;BME280_humidity;BME280_pressure;Samples;Min_cycle;Max_cycle;Signal;HPM_P1;HPM_P2
2023/02/07 00:00:28;;;;;;;2.97;1.90;;;;;;;;;;4967061;28;20572;-63
2023/02/07 00:02:55;;;;;;;3.22;2.28;;;;;;;;;;4953067;28;20115;-60
2023/02/07 00:05:21;;;;;;;3.33;2.20;;;;;;;;;;4953722;28;20065;-60
2023/02/07 00:07:46;;;;;;;2.67;2.08;;;;;;;;;;4957936;28;20108;-63
2023/02/07 00:10:11;;;;;;;3.05;2.08;;;;;;;;;;4974487;28;20030;-60
2023/02/07 00:12:37;;;;;;;2.73;2.00;;;;;;;;;;4960869;28;20034;-60
2023/02/07 00:15:02;;;;;;;3.63;2.10;;;;;;;;;;4955835;28;20301;-64
2023/02/07 00:17:27;;;;;;;3.65;2.42;;;;;;;;;;4977076;28;20034;-66
2023/02/07 00:19:53;;;;;;;2.50;1.98;;;;;;;;;;4974363;28;20065;-66
2023/02/07 00:22:18;;;;;;;3.00;1.83;;;;;;;;;;4956726;28;20479;-61
2023/02/07 00:24:43;;;;;;;2.60;1.90;;;;;;;;;;4954936;28;20301;-64
2023/02/07 00:27:08;;;;;;;2.50;2.00;;;;;;;;;;4955559;28;20655;-62
2023/02/07 00:29:34;;;;;;;2.90;1.97;;;;;;;;;;4969139;28;20039;-63
2023/02/07 00:31:59;;;;;;;2.60;1.77;;;;;;;;;;4968995;28;20322;-64
2023/02/07 00:34:24;;;;;;;3.10;2.00;;;;;;;;;;4976532;28;20030;-66
2023/02/07 00:36:50;;;;;;;2.42;1.95;;;;;;;;;;4972223;28;20027;-60
2023/02/07 00:39:15;;;;;;;3.07;2.20;;;;;;;;;;4952603;28;20411;-60
2023/02/07 00:41:40;;;;;;;2.42;1.75;;;;;;;;;;4972237;28;20286;-64
2023/02/07 00:44:05;;;;;;;3.50;2.30;;;;;;;;;;4986654;28;20042;-62
2023/02/07 00:46:31;;;;;;;2.97;2.05;;;;;;;;;;4952564;28;20055;-63
2023/02/07 00:48:56;;;;;;;2.85;1.90;;;;;;;;;;4970628;28;20125;-64
2023/02/07 00:51:24;;;;;;;2.72;1.90;;;;;;;;;;4985434;28;20041;-64
2023/02/07 00:53:52;;;;;;;2.85;2.00;;;;;;;;;;4968677;28;20060;-68
2023/02/07 00:56:18;;;;;;;2.58;1.88;;;;;;;;;;4969326;28;20093;-62
2023/02/07 00:58:43;;;;;;;2.75;1.80;;;;;;;;;;4961613;28;20451;-64
2023/02/07 01:01:08;;;;;;;2.70;2.00;;;;;;;;;;4968476;28;20058;-67
2023/02/07 01:03:33;;;;;;;3.10;2.20;;;;;;;;;;4968056;28;20042;-61
2023/02/07 01:05:59;;;;;;;2.83;1.98;;;;;;;;;;4973700;28;20031;-64
2023/02/07 01:08:24;;;;;;;2.53;2.00;;;;;;;;;;4975120;28;20059;-64
2023/02/07 01:10:49;;;;;;;2.45;1.83;;;;;;;;;;4981067;28;20097;-65
2023/02/07 01:13:15;;;;;;;2.63;1.92;;;;;;;;;;4968426;28;20959;-65
2023/02/07 01:15:41;;;;;;;3.55;2.28;;;;;;;;;;4969680;28;20089;-61
2023/02/07 01:18:06;;;;;;;2.88;2.00;;;;;;;;;;4968812;28;20038;-64
2023/02/07 01:20:31;;;;;;;2.58;1.70;;;;;;;;;;4963919;28;20439;-63
2023/02/07 01:22:56;;;;;;;2.45;1.90;;;;;;;;;;4972502;28;20050;-62
2023/02/07 01:25:22;;;;;;;2.37;1.77;;;;;;;;;;4973445;28;20106;-63
2023/02/07 01:27:47;;;;;;;2.85;1.85;;;;;;;;;;4968045;28;20289;-62
2023/02/07 01:30:12;;;;;;;2.60;1.75;;;;;;;;;;4963448;28;20525;-64
2023/02/07 01:32:38;;;;;;;3.00;1.80;;;;;;;;;;4967573;28;20030;-64
2023/02/07 01:35:03;;;;;;;2.85;1.92;;;;;;;;;;4962584;28;20439;-65
2023/02/07 01:37:28;;;;;;;2.10;1.80;;;;;;;;;;4969778;28;20093;-68
2023/02/07 01:39:53;;;;;;;2.60;2.13;;;;;;;;;;4976861;28;20420;-62
2023/02/07 01:42:19;;;;;;;2.30;1.88;;;;;;;;;;4977525;28;20369;-63
2023/02/07 01:44:44;;;;;;;3.22;2.20;;;;;;;;;;4968922;28;20034;-68
2023/02/07 01:47:11;;;;;;;3.23;1.90;;;;;;;;;;4973055;28;20110;-63
2023/02/07 01:49:36;;;;;;;2.35;1.90;;;;;;;;;;4966710;28;20833;-64
2023/02/07 01:52:09;;;;;;;2.63;1.80;;;;;;;;;;4967666;28;20071;-63
2023/02/07 01:54:35;;;;;;;2.40;1.52;;;;;;;;;;4977990;28;20341;-64
2023/02/07 01:57:01;;;;;;;1.92;1.60;;;;;;;;;;4982511;28;20439;-62
2023/02/07 01:59:26;;;;;;;2.85;1.80;;;;;;;;;;4953592;28;20459;-59
2023/02/07 02:01:52;;;;;;;2.80;2.10;;;;;;;;;;4983205;28;20026;-63
2023/02/07 02:04:17;;;;;;;2.40;1.77;;;;;;;;;;4964477;28;20361;-65
2023/02/07 02:06:42;;;;;;;2.67;2.00;;;;;;;;;;4967564;28;20026;-62
2023/02/07 02:09:11;;;;;;;1.90;1.57;;;;;;;;;;4967607;28;20048;-61
2023/02/07 02:11:55;;;;;;;2.40;1.90;;;;;;;;;;4968586;28;20305;-63
2023/02/07 02:14:39;;;;;;;2.67;1.88;;;;;;;;;;4979316;28;20063;-63
2023/02/07 02:17:10;;;;;;;2.35;1.77;;;;;;;;;;4955235;28;20033;-62
2023/02/07 02:19:42;;;;;;;2.38;1.60;;;;;;;;;;4980140;28;20031;-67
2023/02/07 02:22:26;;;;;;;2.90;2.00;;;;;;;;;;4977080;28;20058;-65
2023/02/07 02:24:57;;;;;;;2.13;1.73;;;;;;;;;;4968454;28;20039;-62
2023/02/07 02:27:25;;;;;;;2.20;1.73;;;;;;;;;;4968680;28;20398;-60
2023/02/07 02:29:50;;;;;;;2.55;1.80;;;;;;;;;;4966248;28;20035;-59
2023/02/07 02:32:34;;;;;;;3.10;1.83;;;;;;;;;;4974597;28;20065;-66
2023/02/07 02:35:07;;;;;;;2.75;1.52;;;;;;;;;;4964223;28;20194;-57
2023/02/07 02:37:57;;;;;;;2.63;1.90;;;;;;;;;;4959017;28;20049;-58
2023/02/07 02:40:55;;;;;;;2.85;1.75;;;;;;;;;;4974744;28;20073;-68
2023/02/07 02:43:24;;;;;;;2.50;1.88;;;;;;;;;;4915758;28;20042;-64
2023/02/07 02:45:55;;;;;;;2.33;1.48;;;;;;;;;;4976146;28;20038;-64
2023/02/07 02:48:20;;;;;;;2.55;2.05;;;;;;;;;;4994631;28;20062;-62
2023/02/07 02:50:46;;;;;;;2.13;1.67;;;;;;;;;;4960886;28;20100;-65
2023/02/07 02:53:11;;;;;;;2.38;1.95;;;;;;;;;;4993514;28;20433;-63
2023/02/07 02:55:36;;;;;;;2.13;1.60;;;;;;;;;;4976721;28;20049;-59
2023/02/07 02:58:05;;;;;;;2.30;1.70;;;;;;;;;;4993259;28;20049;-61
2023/02/07 03:00:39;;;;;;;2.35;1.90;;;;;;;;;;4993162;28;20308;-58
2023/02/07 03:03:07;;;;;;;2.17;1.60;;;;;;;;;;4996717;28;20030;-63
2023/02/07 03:06:05;;;;;;;2.78;1.80;;;;;;;;;;5000713;28;20098;-59
2023/02/07 03:08:36;;;;;;;2.35;1.70;;;;;;;;;;4969866;28;20208;-65
2023/02/07 03:11:11;;;;;;;2.40;1.70;;;;;;;;;;4978490;28;20093;-64
2023/02/07 03:13:36;;;;;;;2.90;1.80;;;;;;;;;;4971306;28;20034;-60
2023/02/07 03:16:09;;;;;;;2.37;1.83;;;;;;;;;;4987855;28;20034;-65
2023/02/07 03:18:53;;;;;;;2.50;1.80;;;;;;;;;;4973816;28;20281;-61
2023/02/07 03:21:20;;;;;;;2.50;1.90;;;;;;;;;;4987037;28;20038;-64
2023/02/07 03:23:45;;;;;;;2.53;1.88;;;;;;;;;;4985561;28;20240;-65
2023/02/07 03:26:11;;;;;;;2.72;1.80;;;;;;;;;;4967462;28;20050;-63
2023/02/07 03:28:36;;;;;;;2.45;1.90;;;;;;;;;;4950642;28;20511;-63
2023/02/07 03:31:01;;;;;;;2.92;1.95;;;;;;;;;;4968086;28;20034;-62
2023/02/07 03:33:27;;;;;;;2.28;1.65;;;;;;;;;;4967777;28;20438;-62
2023/02/07 03:36:05;;;;;;;2.40;1.52;;;;;;;;;;4967766;28;20030;-62
2023/02/07 03:38:30;;;;;;;2.70;2.00;;;;;;;;;;4957964;28;20065;-60
2023/02/07 03:40:57;;;;;;;2.28;1.60;;;;;;;;;;4959234;28;20018;-65
2023/02/07 03:43:28;;;;;;;3.08;2.10;;;;;;;;;;4989710;28;20014;-66
2023/02/07 03:45:54;;;;;;;2.33;1.70;;;;;;;;;;4989555;28;20053;-67
2023/02/07 03:48:19;;;;;;;2.28;1.77;;;;;;;;;;4970377;28;20030;-65
2023/02/07 03:50:46;;;;;;;2.92;2.10;;;;;;;;;;4979973;28;20057;-62
2023/02/07 03:53:11;;;;;;;2.70;1.90;;;;;;;;;;4986636;28;20026;-61
2023/02/07 03:55:37;;;;;;;2.55;1.60;;;;;;;;;;4968954;28;20435;-63
2023/02/07 03:58:02;;;;;;;2.10;1.65;;;;;;;;;;4961861;28;20069;-68
2023/02/07 04:00:27;;;;;;;2.03;1.40;;;;;;;;;;4986012;28;20411;-66
2023/02/07 04:02:52;;;;;;;2.53;1.83;;;;;;;;;;4968266;28;20126;-63
2023/02/07 04:05:18;;;;;;;2.75;1.67;;;;;;;;;;4972193;28;20053;-64
2023/02/07 04:07:43;;;;;;;2.65;1.65;;;;;;;;;;4969174;28;20189;-64
2023/02/07 04:10:08;;;;;;;2.20;1.60;;;;;;;;;;4969474;28;20133;-64
2023/02/07 04:12:34;;;;;;;2.78;1.80;;;;;;;;;;4971219;28;20039;-61
2023/02/07 04:14:59;;;;;;;2.22;1.60;;;;;;;;;;4969817;28;20466;-64
2023/02/07 04:17:25;;;;;;;2.08;1.60;;;;;;;;;;4968851;28;20483;-64
2023/02/07 04:19:50;;;;;;;2.40;1.90;;;;;;;;;;4972105;28;20280;-64
2023/02/07 04:22:15;;;;;;;1.93;1.57;;;;;;;;;;4938746;28;20046;-63
2023/02/07 04:24:40;;;;;;;2.13;1.55;;;;;;;;;;4976123;28;20289;-67
2023/02/07 04:27:06;;;;;;;2.58;1.80;;;;;;;;;;4954934;28;20035;-58
2023/02/07 04:29:31;;;;;;;2.15;1.60;;;;;;;;;;4970286;28;20076;-64
2023/02/07 04:31:56;;;;;;;1.95;1.40;;;;;;;;;;4969369;28;20063;-60
2023/02/07 04:34:22;;;;;;;2.67;1.60;;;;;;;;;;4969411;28;20031;-60
2023/02/07 04:36:47;;;;;;;2.33;1.65;;;;;;;;;;4983599;28;20034;-61
2023/02/07 04:39:12;;;;;;;2.53;1.70;;;;;;;;;;4971672;28;20027;-64
2023/02/07 04:41:37;;;;;;;3.10;1.80;;;;;;;;;;4970737;28;20037;-63
2023/02/07 04:44:03;;;;;;;2.50;1.80;;;;;;;;;;4985410;28;20649;-62
2023/02/07 04:46:28;;;;;;;2.87;2.07;;;;;;;;;;4971365;28;20483;-61
2023/02/07 04:48:54;;;;;;;2.47;1.73;;;;;;;;;;4952285;28;20285;-63
2023/02/07 04:51:19;;;;;;;2.78;1.63;;;;;;;;;;4948359;28;20031;-64
2023/02/07 04:53:44;;;;;;;2.38;1.50;;;;;;;;;;4952327;28;20054;-64
2023/02/07 04:56:09;;;;;;;2.20;1.90;;;;;;;;;;4967312;28;20034;-63
2023/02/07 04:58:35;;;;;;;2.28;1.50;;;;;;;;;;4950001;28;20415;-65
2023/02/07 05:01:00;;;;;;;2.10;1.70;;;;;;;;;;4958658;28;20062;-63
2023/02/07 05:03:25;;;;;;;2.40;1.80;;;;;;;;;;4970185;28;20281;-62
2023/02/07 05:05:51;;;;;;;2.30;1.70;;;;;;;;;;4968406;28;20951;-63
2023/02/07 05:08:16;;;;;;;4.18;2.03;;;;;;;;;;4966262;28;20054;-64
2023/02/07 05:10:42;;;;;;;2.35;1.58;;;;;;;;;;4951778;28;20027;-60
2023/02/07 05:13:07;;;;;;;2.73;1.80;;;;;;;;;;4964921;28;20043;-60
2023/02/07 05:15:32;;;;;;;2.10;1.70;;;;;;;;;;4953222;28;20408;-62
2023/02/07 05:17:57;;;;;;;2.40;1.60;;;;;;;;;;4948636;28;20062;-60
2023/02/07 05:20:23;;;;;;;2.10;1.60;;;;;;;;;;4949956;28;20035;-63
2023/02/07 05:22:48;;;;;;;6.28;1.70;;;;;;;;;;4966067;28;20350;-64
2023/02/07 05:25:14;;;;;;;2.88;2.10;;;;;;;;;;4952460;28;20142;-69
2023/02/07 05:27:39;;;;;;;2.10;1.70;;;;;;;;;;4967524;28;20057;-60
2023/02/07 05:30:05;;;;;;;2.05;1.42;;;;;;;;;;4949527;28;20035;-65
2023/02/07 05:35:14;;;;;;;2.55;1.83;;;;;;;;;;4965217;28;20046;-60
2023/02/07 05:37:39;;;;;;;2.50;1.67;;;;;;;;;;4948998;28;20034;-64
2023/02/07 05:40:05;;;;;;;2.47;1.80;;;;;;;;;;4965323;28;20419;-64
2023/02/07 05:42:30;;;;;;;2.50;1.90;;;;;;;;;;4935682;28;20164;-59
2023/02/07 05:44:55;;;;;;;2.60;1.83;;;;;;;;;;4950992;28;20058;-59
2023/02/07 05:47:20;;;;;;;2.30;1.80;;;;;;;;;;4954606;28;20515;-63
2023/02/07 05:49:46;;;;;;;2.50;1.93;;;;;;;;;;4952871;28;20055;-64
2023/02/07 05:52:11;;;;;;;1.87;1.53;;;;;;;;;;4950086;28;20322;-66
2023/02/07 05:54:36;;;;;;;2.33;1.90;;;;;;;;;;4965552;28;20791;-58
2023/02/07 05:57:01;;;;;;;2.28;1.70;;;;;;;;;;4937665;28;20023;-60
2023/02/07 05:59:27;;;;;;;2.60;1.80;;;;;;;;;;4936051;28;20035;-63
2023/02/07 06:01:52;;;;;;;2.23;1.70;;;;;;;;;;4927465;28;20534;-60
2023/02/07 06:04:17;;;;;;;3.20;1.83;;;;;;;;;;4945652;28;20301;-59
2023/02/07 06:06:42;;;;;;;2.22;1.70;;;;;;;;;;4943994;28;20309;-59
2023/02/07 06:09:08;;;;;;;2.70;1.67;;;;;;;;;;4964127;28;20121;-59
2023/02/07 06:11:33;;;;;;;2.00;1.53;;;;;;;;;;4962394;28;20947;-62
2023/02/07 06:13:58;;;;;;;1.63;1.17;;;;;;;;;;4948586;28;20277;-63
2023/02/07 06:16:23;;;;;;;2.47;1.70;;;;;;;;;;4933098;28;20295;-59
2023/02/07 06:18:49;;;;;;;2.20;1.83;;;;;;;;;;4947086;28;20031;-61
2023/02/07 06:21:14;;;;;;;2.00;1.60;;;;;;;;;;4949150;28;20348;-63
2023/02/07 06:23:39;;;;;;;2.65;1.80;;;;;;;;;;4947653;28;20035;-61
2023/02/07 06:26:05;;;;;;;2.50;2.00;;;;;;;;;;4966098;28;20046;-63
2023/02/07 06:28:30;;;;;;;2.43;1.80;;;;;;;;;;4949754;28;20039;-60
2023/02/07 06:30:55;;;;;;;2.97;1.80;;;;;;;;;;4969322;28;20347;-64
2023/02/07 06:33:20;;;;;;;3.60;1.70;;;;;;;;;;4952875;28;20485;-62
2023/02/07 06:35:46;;;;;;;2.53;1.90;;;;;;;;;;4968182;28;20293;-60
2023/02/07 06:38:12;;;;;;;2.53;1.65;;;;;;;;;;4947688;28;20046;-60
2023/02/07 06:40:37;;;;;;;2.70;2.00;;;;;;;;;;4962864;28;20035;-69
2023/02/07 06:43:03;;;;;;;3.23;2.03;;;;;;;;;;4944099;28;20108;-60
2023/02/07 06:45:28;;;;;;;2.40;1.90;;;;;;;;;;4946642;28;20294;-63
2023/02/07 06:47:53;;;;;;;2.33;2.07;;;;;;;;;;4983176;28;20293;-70
2023/02/07 06:50:18;;;;;;;3.23;2.20;;;;;;;;;;4972919;28;20285;-68
2023/02/07 06:52:44;;;;;;;2.75;2.08;;;;;;;;;;4963766;28;20278;-65
2023/02/07 06:55:09;;;;;;;3.28;2.00;;;;;;;;;;4965934;28;20043;-66
2023/02/07 06:57:34;;;;;;;3.43;2.10;;;;;;;;;;4966269;28;20073;-67
2023/02/07 06:59:59;;;;;;;2.93;2.10;;;;;;;;;;4967235;28;20298;-69
2023/02/07 07:02:25;;;;;;;3.40;1.95;;;;;;;;;;4984049;28;20293;-62
2023/02/07 07:04:50;;;;;;;4.10;2.08;;;;;;;;;;4967946;28;20109;-65
2023/02/07 07:07:15;;;;;;;2.93;2.00;;;;;;;;;;4957471;28;20517;-68
2023/02/07 07:09:40;;;;;;;2.97;2.30;;;;;;;;;;4968705;28;20744;-67
2023/02/07 07:12:06;;;;;;;3.00;2.20;;;;;;;;;;4967512;28;20281;-59
2023/02/07 07:14:32;;;;;;;2.85;2.45;;;;;;;;;;4950750;28;20689;-67
2023/02/07 07:16:57;;;;;;;3.10;2.25;;;;;;;;;;4961539;28;20936;-67
2023/02/07 07:19:22;;;;;;;3.55;2.20;;;;;;;;;;4985558;28;20595;-64
2023/02/07 07:21:47;;;;;;;3.10;2.13;;;;;;;;;;4967399;28;20066;-70
2023/02/07 07:24:13;;;;;;;3.35;2.20;;;;;;;;;;4956884;28;20099;-62
2023/02/07 07:26:38;;;;;;;3.17;2.40;;;;;;;;;;4984726;28;20488;-65
2023/02/07 07:29:03;;;;;;;3.33;2.23;;;;;;;;;;4968086;28;20531;-67
2023/02/07 07:31:29;;;;;;;3.25;2.40;;;;;;;;;;4968395;28;20347;-64
2023/02/07 07:33:54;;;;;;;3.73;2.20;;;;;;;;;;4967494;28;20038;-64
2023/02/07 07:36:19;;;;;;;3.03;2.28;;;;;;;;;;4984150;28;20289;-66
2023/02/07 07:38:45;;;;;;;3.08;2.53;;;;;;;;;;4984735;28;20447;-63
2023/02/07 07:41:10;;;;;;;4.23;2.47;;;;;;;;;;4963599;28;20049;-67
2023/02/07 07:43:35;;;;;;;3.80;2.70;;;;;;;;;;4951914;28;20380;-69
2023/02/07 07:46:00;;;;;;;3.30;2.60;;;;;;;;;;4986794;28;20455;-72
2023/02/07 07:48:26;;;;;;;3.53;2.60;;;;;;;;;;4984483;28;20328;-59
2023/02/07 07:50:51;;;;;;;3.83;2.58;;;;;;;;;;4946468;28;20042;-63
2023/02/07 07:53:17;;;;;;;4.15;2.25;;;;;;;;;;4955676;28;20049;-69
2023/02/07 07:55:47;;;;;;;3.13;2.42;;;;;;;;;;4943182;28;20042;-72
2023/02/07 07:58:12;;;;;;;3.17;2.63;;;;;;;;;;4969231;28;20100;-68
2023/02/07 08:00:37;;;;;;;3.37;2.40;;;;;;;;;;4966785;28;20460;-65
2023/02/07 08:03:02;;;;;;;3.30;2.60;;;;;;;;;;4968639;28;20289;-69
2023/02/07 08:05:28;;;;;;;3.38;2.67;;;;;;;;;;4951584;28;20301;-60
2023/02/07 08:07:53;;;;;;;4.13;2.87;;;;;;;;;;4969261;28;20058;-64
2023/02/07 08:10:18;;;;;;;4.15;3.05;;;;;;;;;;4953817;28;20301;-68
2023/02/07 08:12:43;;;;;;;3.90;2.67;;;;;;;;;;4952584;28;20031;-64
2023/02/07 08:15:09;;;;;;;3.30;2.70;;;;;;;;;;4950133;28;20090;-70
2023/02/07 08:17:35;;;;;;;4.05;2.80;;;;;;;;;;4968799;28;20282;-68
2023/02/07 08:20:00;;;;;;;3.58;3.05;;;;;;;;;;4951728;28;20045;-65
2023/02/07 08:22:25;;;;;;;3.58;3.20;;;;;;;;;;4967229;28;20094;-64
2023/02/07 08:24:50;;;;;;;3.87;2.90;;;;;;;;;;4982249;28;20043;-69
2023/02/07 08:27:15;;;;;;;4.00;3.00;;;;;;;;;;4988737;28;20296;-68
2023/02/07 08:29:41;;;;;;;5.03;3.10;;;;;;;;;;4958952;28;20887;-57
2023/02/07 08:32:06;;;;;;;4.25;3.10;;;;;;;;;;4972570;28;20270;-68
2023/02/07 08:34:36;;;;;;;5.18;3.00;;;;;;;;;;4956943;28;20583;-63
2023/02/07 08:37:01;;;;;;;4.40;3.13;;;;;;;;;;4967434;28;20037;-67
2023/02/07 08:39:27;;;;;;;3.45;2.78;;;;;;;;;;4972227;28;20030;-66
2023/02/07 08:41:52;;;;;;;4.95;3.50;;;;;;;;;;4956417;28;20070;-61
2023/02/07 08:44:17;;;;;;;5.07;3.30;;;;;;;;;;4976741;28;20034;-61
2023/02/07 08:46:42;;;;;;;4.23;3.40;;;;;;;;;;4961092;28;20286;-60
2023/02/07 08:49:08;;;;;;;4.20;3.30;;;;;;;;;;4990756;28;20439;-57
2023/02/07 08:51:33;;;;;;;4.97;3.40;;;;;;;;;;4970908;28;20301;-60
2023/02/07 08:53:58;;;;;;;4.37;3.50;;;;;;;;;;4953202;28;20287;-60
2023/02/07 08:56:23;;;;;;;4.78;3.50;;;;;;;;;;4953873;28;20289;-71
2023/02/07 08:58:49;;;;;;;3.50;2.80;;;;;;;;;;4969559;28;20042;-71
2023/02/07 09:01:14;;;;;;;4.22;3.47;;;;;;;;;;4949861;29;20543;-63
2023/02/07 09:03:39;;;;;;;4.33;3.33;;;;;;;;;;4950661;28;20023;-69
2023/02/07 09:06:05;;;;;;;4.00;3.17;;;;;;;;;;4964854;28;20282;-65
2023/02/07 09:08:30;;;;;;;5.20;3.25;;;;;;;;;;4959784;28;20097;-59
2023/02/07 09:10:55;;;;;;;4.10;3.10;;;;;;;;;;4966092;28;20101;-72
2023/02/07 09:13:20;;;;;;;4.32;3.40;;;;;;;;;;4948252;28;20475;-60
2023/02/07 09:15:51;;;;;;;4.63;3.38;;;;;;;;;;4967029;28;20093;-68
2023/02/07 09:18:16;;;;;;;4.32;3.47;;;;;;;;;;4967619;28;20546;-64
2023/02/07 09:20:42;;;;;;;4.30;3.20;;;;;;;;;;4970896;28;20071;-67
2023/02/07 09:23:16;;;;;;;4.38;3.45;;;;;;;;;;4974111;28;20828;-68
2023/02/07 09:25:42;;;;;;;4.50;3.63;;;;;;;;;;4967875;28;20050;-67
2023/02/07 09:28:07;;;;;;;4.80;3.55;;;;;;;;;;4968457;28;20114;-67
2023/02/07 09:30:32;;;;;;;4.23;3.40;;;;;;;;;;4952504;28;20035;-69
2023/02/07 09:32:58;;;;;;;4.90;3.53;;;;;;;;;;4967267;28;20288;-64
2023/02/07 09:35:23;;;;;;;4.05;3.50;;;;;;;;;;4968724;28;20762;-69
2023/02/07 09:37:51;;;;;;;4.75;3.30;;;;;;;;;;4950794;28;20111;-62
2023/02/07 09:40:17;;;;;;;4.30;3.28;;;;;;;;;;4952153;28;20590;-65
2023/02/07 09:42:47;;;;;;;4.25;3.47;;;;;;;;;;4984861;28;20035;-65
2023/02/07 09:45:15;;;;;;;4.07;3.40;;;;;;;;;;4965694;28;20075;-67
2023/02/07 09:47:41;;;;;;;4.60;3.50;;;;;;;;;;4984862;28;20050;-68
2023/02/07 09:50:09;;;;;;;4.20;3.67;;;;;;;;;;4969111;28;20487;-64
2023/02/07 09:52:43;;;;;;;4.28;3.42;;;;;;;;;;4970860;28;20097;-60
2023/02/07 09:55:14;;;;;;;4.20;3.50;;;;;;;;;;4971718;28;20100;-63
2023/02/07 09:57:41;;;;;;;4.47;3.70;;;;;;;;;;4993457;28;20219;-67
2023/02/07 10:00:09;;;;;;;4.20;3.60;;;;;;;;;;4971367;28;20050;-69
2023/02/07 10:02:44;;;;;;;4.28;3.63;;;;;;;;;;4970634;28;20110;-69
2023/02/07 10:05:36;;;;;;;4.25;3.25;;;;;;;;;;4982842;28;20074;-63
2023/02/07 10:08:02;;;;;;;4.88;3.90;;;;;;;;;;4968976;28;20109;-63
2023/02/07 10:10:31;;;;;;;5.97;3.85;;;;;;;;;;4969281;28;20138;-68
2023/02/07 10:12:59;;;;;;;4.60;3.50;;;;;;;;;;4983149;28;20031;-62
2023/02/07 10:15:24;;;;;;;4.80;3.78;;;;;;;;;;4967883;28;20093;-65
2023/02/07 10:18:08;;;;;;;5.00;3.83;;;;;;;;;;4972820;28;20519;-68
2023/02/07 10:20:34;;;;;;;4.53;3.65;;;;;;;;;;4984690;28;20046;-69
2023/02/07 10:23:05;;;;;;;5.05;3.90;;;;;;;;;;4965192;28;20028;-56
2023/02/07 10:25:50;;;;;;;6.10;3.88;;;;;;;;;;4969228;28;20042;-67
2023/02/07 10:28:16;;;;;;;4.43;3.42;;;;;;;;;;4968656;28;20053;-71
2023/02/07 10:30:51;;;;;;;5.50;3.60;;;;;;;;;;4977443;28;20034;-64
2023/02/07 10:33:17;;;;;;;4.43;3.58;;;;;;;;;;4987253;28;20630;-65
2023/02/07 10:35:44;;;;;;;3.97;3.50;;;;;;;;;;4984998;28;20069;-64
2023/02/07 10:38:23;;;;;;;4.80;3.58;;;;;;;;;;4971410;28;20033;-64
2023/02/07 10:40:51;;;;;;;4.75;3.47;;;;;;;;;;4966003;28;20018;-64
2023/02/07 10:43:31;;;;;;;4.80;3.70;;;;;;;;;;4968398;28;20046;-63
2023/02/07 10:46:15;;;;;;;4.60;3.65;;;;;;;;;;4982190;28;20058;-64
2023/02/07 10:48:40;;;;;;;4.30;3.60;;;;;;;;;;4983157;28;20441;-65
2023/02/07 10:51:11;;;;;;;4.65;3.40;;;;;;;;;;4982828;28;20023;-72
2023/02/07 10:53:50;;;;;;;3.85;3.42;;;;;;;;;;4986180;28;20026;-67
2023/02/07 10:56:22;;;;;;;6.35;3.45;;;;;;;;;;4980914;28;20035;-63
2023/02/07 10:58:47;;;;;;;5.10;3.80;;;;;;;;;;4967061;28;20097;-66
2023/02/07 11:01:20;;;;;;;4.88;3.40;;;;;;;;;;4986098;28;20443;-67
2023/02/07 11:03:46;;;;;;;4.53;3.35;;;;;;;;;;4983815;28;20049;-69
2023/02/07 11:06:13;;;;;;;4.68;3.55;;;;;;;;;;4952882;28;20412;-71
2023/02/07 11:08:39;;;;;;;4.82;3.40;;;;;;;;;;4968582;28;20045;-65
2023/02/07 11:11:23;;;;;;;4.63;3.78;;;;;;;;;;4967266;28;20046;-69
2023/02/07 11:13:49;;;;;;;5.20;4.05;;;;;;;;;;4967775;28;20049;-65
2023/02/07 11:16:15;;;;;;;4.95;3.75;;;;;;;;;;4968427;28;20112;-60
2023/02/07 11:18:41;;;;;;;5.15;4.00;;;;;;;;;;4953954;28;20058;-63
2023/02/07 11:21:25;;;;;;;4.82;3.63;;;;;;;;;;4983260;28;20556;-61
2023/02/07 11:23:51;;;;;;;4.60;3.55;;;;;;;;;;4983508;28;20049;-66
2023/02/07 11:26:16;;;;;;;4.32;3.70;;;;;;;;;;4967343;28;20144;-66
2023/02/07 11:28:42;;;;;;;5.07;3.72;;;;;;;;;;4967913;28;20117;-65
2023/02/07 11:31:08;;;;;;;5.00;3.83;;;;;;;;;;4984514;28;20046;-64
2023/02/07 11:33:35;;;;;;;4.22;3.53;;;;;;;;;;4967721;28;20045;-67
2023/02/07 11:36:01;;;;;;;5.13;3.83;;;;;;;;;;4953271;28;20114;-66
2023/02/07 11:38:27;;;;;;;5.35;3.90;;;;;;;;;;4984612;28;20043;-63
2023/02/07 11:40:52;;;;;;;5.28;3.88;;;;;;;;;;4988131;28;20061;-56
2023/02/07 11:43:20;;;;;;;4.60;3.70;;;;;;;;;;4975772;28;20042;-63
2023/02/07 11:45:47;;;;;;;5.15;3.80;;;;;;;;;;4969358;28;20698;-64
2023/02/07 11:48:16;;;;;;;5.40;4.03;;;;;;;;;;4967626;28;20042;-70
2023/02/07 11:50:42;;;;;;;5.60;4.17;;;;;;;;;;4951255;28;20034;-68
2023/02/07 11:53:14;;;;;;;5.10;3.85;;;;;;;;;;4952319;28;20031;-68
2023/02/07 11:55:40;;;;;;;4.68;3.80;;;;;;;;;;4960207;28;20043;-64
2023/02/07 11:58:09;;;;;;;4.82;3.58;;;;;;;;;;4964114;28;20487;-66
2023/02/07 12:00:35;;;;;;;5.10;3.60;;;;;;;;;;4960226;28;20031;-69
2023/02/07 12:03:01;;;;;;;5.10;4.10;;;;;;;;;;4955418;28;20345;-61
2023/02/07 12:05:28;;;;;;;5.10;4.03;;;;;;;;;;4971598;28;20715;-64
2023/02/07 12:08:01;;;;;;;4.78;3.55;;;;;;;;;;4957259;28;20130;-66
2023/02/07 12:10:34;;;;;;;4.85;3.90;;;;;;;;;;4985517;28;20046;-57
2023/02/07 12:12:59;;;;;;;5.22;3.88;;;;;;;;;;4955937;28;20034;-66
2023/02/07 12:15:33;;;;;;;4.65;3.70;;;;;;;;;;4965040;28;20044;-68
2023/02/07 12:18:01;;;;;;;4.78;3.72;;;;;;;;;;4988847;28;20039;-62
2023/02/07 12:20:30;;;;;;;5.07;3.75;;;;;;;;;;4967404;28;20059;-69
2023/02/07 12:22:56;;;;;;;;;;;;;;;;;;4973266;28;20010;-70
2023/02/07 12:25:21;;;;;;;6.22;3.65;;;;;;;;;;4971164;28;19914;-71
2023/02/07 12:27:47;;;;;;;5.03;3.92;;;;;;;;;;4970849;28;20027;-67
2023/02/07 12:30:21;;;;;;;4.80;3.90;;;;;;;;;;4971371;28;20153;-70
2023/02/07 12:32:53;;;;;;;5.00;3.70;;;;;;;;;;4990046;28;20438;-66
2023/02/07 12:35:22;;;;;;;4.80;3.72;;;;;;;;;;4991018;28;20542;-69
2023/02/07 12:37:50;;;;;;;5.72;4.00;;;;;;;;;;4959965;28;20503;-70
2023/02/07 12:40:16;;;;;;;4.82;3.85;;;;;;;;;;4988487;28;20388;-69
2023/02/07 12:42:46;;;;;;;5.23;3.97;;;;;;;;;;4989890;28;20138;-65
2023/02/07 12:45:11;;;;;;;;;;;;;;;;;;4973027;28;20300;-64
2023/02/07 12:47:41;;;;;;;6.38;4.00;;;;;;;;;;5001383;28;19945;-69
2023/02/07 12:50:19;;;;;;;4.72;3.88;;;;;;;;;;4971455;28;20139;-66
2023/02/07 12:52:56;;;;;;;5.32;3.90;;;;;;;;;;4970767;28;20027;-68
2023/02/07 12:55:32;;;;;;;5.53;3.90;;;;;;;;;;4985176;28;20206;-69
2023/02/07 12:57:57;;;;;;;5.30;4.00;;;;;;;;;;4950013;28;20050;-66
2023/02/07 13:00:32;;;;;;;4.70;4.20;;;;;;;;;;4984778;28;20046;-64
2023/02/07 13:03:00;;;;;;;5.00;3.90;;;;;;;;;;4988486;28;20294;-61
2023/02/07 13:05:31;;;;;;;5.30;3.95;;;;;;;;;;4972982;28;20046;-63
2023/02/07 13:08:05;;;;;;;4.80;3.72;;;;;;;;;;4972157;28;20045;-65
2023/02/07 13:10:37;;;;;;;5.22;4.10;;;;;;;;;;4987465;28;20039;-65
2023/02/07 13:13:02;;;;;;;4.47;4.00;;;;;;;;;;4984907;28;20057;-61
2023/02/07 13:15:28;;;;;;;4.73;4.03;;;;;;;;;;4970769;28;20133;-72
2023/02/07 13:17:56;;;;;;;4.35;3.80;;;;;;;;;;4979031;28;20074;-63
2023/02/07 13:20:24;;;;;;;4.28;3.67;;;;;;;;;;4981657;28;20464;-65
2023/02/07 13:22:52;;;;;;;4.50;3.92;;;;;;;;;;4961701;28;20027;-67
2023/02/07 13:25:19;;;;;;;4.75;3.95;;;;;;;;;;4970056;28;20503;-68
2023/02/07 13:27:45;;;;;;;4.60;4.00;;;;;;;;;;4964007;28;20561;-67
2023/02/07 13:30:16;;;;;;;4.57;4.10;;;;;;;;;;4969211;28;20046;-70
2023/02/07 13:32:42;;;;;;;4.70;4.03;;;;;;;;;;4954708;28;20393;-66
2023/02/07 13:35:10;;;;;;;4.80;4.07;;;;;;;;;;4945479;28;20122;-69
2023/02/07 13:37:45;;;;;;;5.38;4.25;;;;;;;;;;4966288;28;20349;-67
2023/02/07 13:40:25;;;;;;;4.47;3.85;;;;;;;;;;4967572;28;20039;-74
2023/02/07 13:42:50;;;;;;;4.57;4.07;;;;;;;;;;4971428;28;20073;-69
2023/02/07 13:45:20;;;;;;;4.70;4.07;;;;;;;;;;4984461;28;20030;-63
2023/02/07 13:47:54;;;;;;;4.78;3.75;;;;;;;;;;4967639;28;20340;-72
2023/02/07 13:50:20;;;;;;;4.53;3.67;;;;;;;;;;4982852;28;20439;-67
2023/02/07 13:52:51;;;;;;;5.10;4.18;;;;;;;;;;4972825;28;20026;-60
2023/02/07 13:55:30;;;;;;;5.63;4.60;;;;;;;;;;4981841;28;20436;-65
2023/02/07 14:00:57;;;;;;;4.57;3.78;;;;;;;;;;4967529;28;20572;-75
2023/02/07 14:03:26;;;;;;;4.68;4.13;;;;;;;;;;4984311;28;20117;-68
2023/02/07 14:05:52;;;;;;;4.85;4.05;;;;;;;;;;4985232;28;20054;-69
2023/02/07 14:08:17;;;;;;;5.57;4.20;;;;;;;;;;4984180;28;20558;-70
2023/02/07 14:10:44;;;;;;;4.83;4.00;;;;;;;;;;4984562;28;20052;-62
2023/02/07 14:13:21;;;;;;;4.78;4.13;;;;;;;;;;4969613;28;20292;-67
2023/02/07 14:15:47;;;;;;;4.57;3.83;;;;;;;;;;4983402;28;20062;-68
2023/02/07 14:18:28;;;;;;;4.78;3.67;;;;;;;;;;4983743;28;20077;-64
2023/02/07 14:20:59;;;;;;;5.22;4.15;;;;;;;;;;4969476;28;20097;-63
2023/02/07 14:23:27;;;;;;;5.05;3.75;;;;;;;;;;4955126;28;20035;-68
2023/02/07 14:25:53;;;;;;;4.75;4.18;;;;;;;;;;4973064;28;20058;-59
2023/02/07 14:28:20;;;;;;;4.75;3.58;;;;;;;;;;4997415;28;20045;-59
2023/02/07 14:30:48;;;;;;;4.68;3.92;;;;;;;;;;4977640;28;20051;-68
2023/02/07 14:33:32;;;;;;;4.68;3.90;;;;;;;;;;4983520;28;20563;-61
2023/02/07 14:36:03;;;;;;;4.68;3.95;;;;;;;;;;4968119;28;20043;-71
2023/02/07 14:38:29;;;;;;;5.05;3.90;;;;;;;;;;4982071;28;20029;-67
2023/02/07 14:40:56;;;;;;;5.13;4.27;;;;;;;;;;4967997;28;20038;-65
2023/02/07 14:43:22;;;;;;;4.38;3.85;;;;;;;;;;4966986;28;20289;-67
2023/02/07 14:45:50;;;;;;;4.72;3.80;;;;;;;;;;4970727;28;20043;-69
2023/02/07 14:48:34;;;;;;;4.70;4.18;;;;;;;;;;4964951;28;20035;-68
2023/02/07 14:51:00;;;;;;;6.75;3.88;;;;;;;;;;4959859;28;20031;-61